Lomas de Zamora, Argentina
Current Conditions -  °F | °C
As of 6:00 PM on Monday 20 Oct 2014 (Local Time) from SAEZ Reporting Station
Clear Clear  
Wind Chill: 72°   Ceiling: Unl
Heat Index: 72°   Visibility: 6mi
Dew Point: 52°   Wind: 10mph
Humidity: 50%   Direction: 70°ENE
Pressure: 30.09"   Gusts: NA
Location:  34.77°S, 58.4°W
Report Text: SAEZ 202100Z 07009KT CAVOK 22/11 Q1019
Loading
Personal Weather Stations






























Interactive Weather Map
Tropical Storm Tracking
New forecast layout! Learn more

10-Day Weather Forecast

Advertisements
Track Severe Weather on mobile